This is the latest recevied weather packets stored in our database for station/object IV3CVE-H1. If no packets are shown the sender has not sent any weather packets the latest 10 day(s).
| Time | Temp. | Humidity | Pressure | Rain* | Wind** | Luminosity | Snow |
|---|---|---|---|---|---|---|---|
| 1777728915 | 25.56° C | 36% | 1019.5 hPa | 0 mm | - | - | - |
| 1777727718 | 26.11° C | 36% | 1019.9 hPa | 0 mm | - | - | - |
| 1777725917 | 26.11° C | 37% | 1020.1 hPa | 0 mm | - | - | - |
| 1777718717 | 23.89° C | 42% | 1021.7 hPa | 0 mm | - | - | - |
| 1777715716 | 23.33° C | 41% | 1022.3 hPa | 0 mm | - | - | - |
| 1777709717 | 20° C | 45% | 1022.9 hPa | 0 mm | - | - | - |
| 1777709117 | 19.44° C | 46% | 1023.1 hPa | 0 mm | - | - | - |
| 1777698917 | 11.11° C | 73% | 1023.8 hPa | 0 mm | - | - | - |
| 1777696516 | 8.89° C | 76% | 1023.7 hPa | 0 mm | - | - | - |
| 1777695916 | 8.89° C | 77% | 1023.6 hPa | 0 mm | - | - | - |
| 1777692937 | 8.33° C | 78% | 1023.6 hPa | 0 mm | - | - | - |
| 1777692337 | 8.33° C | 78% | 1023.6 hPa | 0 mm | - | - | - |
| 1777691716 | 8.33° C | 77% | 1023.6 hPa | 0 mm | - | - | - |
| 1777688117 | 8.89° C | 78% | 1023.9 hPa | 0 mm | - | - | - |
| 1777686336 | 8.89° C | 80% | 1023.9 hPa | 0 mm | - | - | - |
| 1777683938 | 8.89° C | 80% | 1024 hPa | 0 mm | - | - | - |
| 1777681517 | 9.44° C | 75% | 1024.1 hPa | 0 mm | - | - | - |
| 1777679716 | 10° C | 74% | 1024.2 hPa | 0 mm | - | - | - |
| 1777677915 | 9.44° C | 72% | 1024.1 hPa | 0 mm | - | - | - |
| 1777668315 | 11.67° C | 57% | 1023.2 hPa | 0 mm | - | - | - |
| 1777660518 | 16.11° C | 43% | 1022.1 hPa | 0 mm | - | - | - |
| 1777655717 | 19.44° C | 36% | 1021.5 hPa | 0 mm | - | - | - |
| 1777646116 | 22.78° C | 29% | 1022.4 hPa | 0 mm | - | - | - |
| 1777645516 | 22.78° C | 32% | 1022.4 hPa | 0 mm | - | - | - |
| 1777642516 | 23.33° C | 29% | 1023 hPa | 0 mm | - | - | - |
* Rain latest hour (hover to see other rain measurements)
** Current wind speed in m/s (hover to see current wind gust speed)